Time;durP1;ratioP1;P1;durP2;ratioP2;P2;SDS_P1;SDS_P2;PMS_P1;PMS_P2;Temp;Humidity;BMP_temperature;BMP_pressure;BME280_temperature;BME280_humidity;BME280_pressure;Samples;Min_cycle;Max_cycle;Signal;HPM_P1;HPM_P2
2022/08/16 00:02:07;;;;;;;18.83;15.32;;;21.30;99.90;;;;;;4977393;28;20077;-63
2022/08/16 00:04:34;;;;;;;17.17;15.25;;;21.30;99.90;;;;;;4994972;28;20081;-62
2022/08/16 00:07:02;;;;;;;20.02;16.30;;;21.30;99.90;;;;;;4977339;28;20046;-63
2022/08/16 00:09:29;;;;;;;17.77;14.88;;;21.30;99.90;;;;;;4977256;28;20062;-62
2022/08/16 00:11:56;;;;;;;19.35;13.95;;;21.20;99.90;;;;;;4976337;28;20518;-61
2022/08/16 00:14:27;;;;;;;17.42;15.15;;;21.20;99.90;;;;;;4977086;28;20089;-63
2022/08/16 00:16:55;;;;;;;17.77;15.88;;;21.20;99.90;;;;;;4994593;28;20081;-62
2022/08/16 00:19:25;;;;;;;19.23;15.95;;;21.30;99.90;;;;;;4994757;28;20109;-62
2022/08/16 00:21:54;;;;;;;19.90;15.27;;;21.20;99.90;;;;;;4994537;28;20112;-64
2022/08/16 00:24:22;;;;;;;17.13;13.52;;;21.30;99.90;;;;;;4976944;28;20108;-63
2022/08/16 00:26:49;;;;;;;18.67;15.02;;;21.30;99.90;;;;;;4994502;28;20465;-63
2022/08/16 00:29:17;;;;;;;17.05;15.25;;;21.30;99.90;;;;;;4977723;28;20077;-62
2022/08/16 00:31:45;;;;;;;15.73;14.13;;;21.30;99.90;;;;;;4976458;28;20050;-62
2022/08/16 00:34:14;;;;;;;18.27;14.63;;;21.30;99.90;;;;;;4976926;28;20598;-63
2022/08/16 00:36:45;;;;;;;18.73;14.10;;;21.30;99.90;;;;;;4993250;28;20071;-63
2022/08/16 00:39:11;;;;;;;;;;;21.40;99.90;;;;;;4977675;28;20142;-63
2022/08/16 00:41:38;;;;;;;16.90;13.88;;;21.40;99.90;;;;;;4977359;28;19922;-62
2022/08/16 00:44:09;;;;;;;18.35;14.00;;;21.30;99.90;;;;;;4976522;28;20054;-63
2022/08/16 00:46:38;;;;;;;18.65;14.38;;;21.30;99.90;;;;;;4977054;28;20097;-64
2022/08/16 00:49:08;;;;;;;16.23;14.45;;;21.30;99.90;;;;;;4994700;28;20465;-63
2022/08/16 00:51:36;;;;;;;16.92;14.88;;;21.30;99.90;;;;;;4993558;28;20129;-62
2022/08/16 00:54:04;;;;;;;17.05;14.57;;;21.40;99.90;;;;;;4976814;28;20062;-63
2022/08/16 00:56:35;;;;;;;16.90;13.85;;;21.30;99.90;;;;;;4994353;28;20517;-62
2022/08/16 00:59:03;;;;;;;15.45;13.77;;;21.30;99.90;;;;;;4993642;28;20410;-62
2022/08/16 01:01:31;;;;;;;17.45;13.52;;;21.30;99.90;;;;;;4976357;28;20089;-62
2022/08/16 01:04:00;;;;;;;18.35;13.93;;;21.30;99.90;;;;;;4994122;28;20054;-62
2022/08/16 01:06:27;;;;;;;21.25;15.15;;;21.30;99.90;;;;;;4993243;28;20137;-63
2022/08/16 01:08:57;;;;;;;16.23;13.60;;;21.30;99.90;;;;;;4993909;28;20046;-62
2022/08/16 01:11:25;;;;;;;16.70;13.63;;;21.20;99.90;;;;;;4993931;28;20050;-62
2022/08/16 01:13:57;;;;;;;17.85;14.20;;;21.20;99.90;;;;;;4993660;28;20085;-63
2022/08/16 01:16:26;;;;;;;15.35;13.43;;;21.20;99.90;;;;;;4993744;28;20105;-63
2022/08/16 01:19:00;;;;;;;17.02;13.38;;;21.30;99.90;;;;;;4993709;28;20085;-63
2022/08/16 01:21:36;;;;;;;21.20;14.60;;;21.20;99.90;;;;;;4993392;28;20050;-63
2022/08/16 01:24:15;;;;;;;19.00;14.55;;;21.20;99.90;;;;;;4993717;28;20093;-63
2022/08/16 01:26:44;;;;;;;16.80;14.82;;;21.20;99.90;;;;;;4993400;28;20081;-62
2022/08/16 01:29:20;;;;;;;22.88;14.88;;;21.20;99.90;;;;;;4993605;28;20054;-63
2022/08/16 01:31:47;;;;;;;17.05;13.27;;;21.20;99.90;;;;;;4993679;28;20074;-62
2022/08/16 01:34:15;;;;;;;15.93;14.20;;;21.20;99.90;;;;;;4993085;28;20105;-63
2022/08/16 01:36:42;;;;;;;18.25;14.85;;;21.20;99.90;;;;;;4993010;28;20097;-63
2022/08/16 01:39:13;;;;;;;15.95;14.35;;;21.20;99.90;;;;;;4993874;28;20054;-63
2022/08/16 01:41:41;;;;;;;18.30;15.02;;;21.20;99.90;;;;;;4975942;28;20089;-63
2022/08/16 01:44:08;;;;;;;16.08;14.40;;;21.10;99.90;;;;;;4976070;28;20058;-62
2022/08/16 01:46:37;;;;;;;20.25;14.15;;;21.10;99.90;;;;;;4976346;28;20086;-62
2022/08/16 01:49:08;;;;;;;15.25;13.65;;;21.10;99.90;;;;;;4992882;28;20085;-61
2022/08/16 01:51:36;;;;;;;15.30;13.63;;;21.10;99.90;;;;;;4993152;28;20081;-63
2022/08/16 01:54:03;;;;;;;14.43;12.68;;;21.10;99.90;;;;;;4975085;28;20058;-62
2022/08/16 01:56:33;;;;;;;20.65;14.15;;;21.10;99.90;;;;;;4975767;28;20054;-62
2022/08/16 01:59:02;;;;;;;15.43;13.20;;;21.10;99.90;;;;;;4976295;28;20054;-63
2022/08/16 02:01:29;;;;;;;14.27;12.70;;;21.00;99.90;;;;;;4992495;28;20054;-62
2022/08/16 02:03:57;;;;;;;15.95;14.25;;;21.00;99.90;;;;;;4992961;28;20077;-62
2022/08/16 02:06:24;;;;;;;15.80;13.05;;;21.00;99.90;;;;;;4993598;28;20042;-63
2022/08/16 02:08:53;;;;;;;15.65;13.13;;;21.00;99.90;;;;;;4975439;28;20065;-63
2022/08/16 02:11:21;;;;;;;18.75;13.60;;;20.80;99.90;;;;;;4975876;28;20054;-62
2022/08/16 02:13:50;;;;;;;15.05;13.35;;;20.90;99.90;;;;;;4993292;28;20061;-63
2022/08/16 02:16:18;;;;;;;18.23;13.48;;;20.80;99.90;;;;;;4975526;28;20109;-62
2022/08/16 02:18:45;;;;;;;15.52;13.85;;;20.90;99.90;;;;;;4975742;28;20517;-62
2022/08/16 02:21:13;;;;;;;15.00;13.00;;;20.90;99.90;;;;;;4975919;28;20121;-62
2022/08/16 02:23:40;;;;;;;17.95;13.77;;;20.90;99.90;;;;;;4992107;28;20219;-63
2022/08/16 02:26:08;;;;;;;15.63;13.95;;;20.90;99.90;;;;;;4992938;28;20101;-63
2022/08/16 02:28:36;;;;;;;15.32;13.60;;;20.90;99.90;;;;;;4975859;28;20538;-63
2022/08/16 02:31:07;;;;;;;18.85;14.00;;;20.90;99.90;;;;;;4975400;28;20058;-62
2022/08/16 02:33:34;;;;;;;17.60;13.65;;;20.90;99.90;;;;;;4975729;28;20082;-62
2022/08/16 02:36:01;;;;;;;18.23;14.85;;;20.90;99.90;;;;;;4975779;28;20458;-62
2022/08/16 02:38:30;;;;;;;14.98;13.43;;;20.90;99.90;;;;;;4991877;28;20553;-62
2022/08/16 02:40:57;;;;;;;15.63;14.02;;;20.90;99.90;;;;;;4975218;28;20055;-62
2022/08/16 02:43:25;;;;;;;18.13;14.82;;;20.90;99.90;;;;;;4992338;28;20117;-62
2022/08/16 02:45:52;;;;;;;19.42;14.75;;;20.90;99.90;;;;;;4975416;28;20133;-62
2022/08/16 02:48:20;;;;;;;18.00;15.30;;;20.90;99.90;;;;;;4975916;28;20404;-62
2022/08/16 02:50:48;;;;;;;20.17;14.90;;;20.90;99.90;;;;;;4992460;28;20410;-62
2022/08/16 02:53:16;;;;;;;17.98;15.10;;;20.90;99.90;;;;;;4992897;28;20055;-63
2022/08/16 02:55:42;;;;;;;22.23;16.08;;;20.90;99.90;;;;;;4975395;28;20050;-62
2022/08/16 02:58:10;;;;;;;19.67;15.15;;;20.90;99.90;;;;;;4991212;28;20125;-63
2022/08/16 03:00:37;;;;;;;19.08;15.57;;;20.90;99.90;;;;;;4976930;28;20050;-62
2022/08/16 03:03:05;;;;;;;19.42;16.05;;;20.80;99.90;;;;;;4979337;28;20116;-61
2022/08/16 03:05:33;;;;;;;18.48;15.30;;;20.90;99.90;;;;;;4995843;28;20058;-62
2022/08/16 03:08:00;;;;;;;18.95;15.30;;;20.80;99.90;;;;;;4978646;28;20050;-62
2022/08/16 03:10:27;;;;;;;23.92;16.65;;;20.80;99.90;;;;;;4996116;28;20050;-63
2022/08/16 03:12:55;;;;;;;20.13;16.58;;;20.80;99.90;;;;;;4995921;28;20053;-63
2022/08/16 03:15:22;;;;;;;19.67;17.05;;;20.80;99.90;;;;;;4978840;28;20066;-63
2022/08/16 03:17:49;;;;;;;22.15;17.52;;;20.70;99.90;;;;;;4978997;28;20082;-62
2022/08/16 03:20:17;;;;;;;22.55;16.90;;;20.70;99.90;;;;;;4995363;28;20222;-63
2022/08/16 03:22:45;;;;;;;21.17;16.85;;;20.60;99.90;;;;;;4995842;28;20113;-62
2022/08/16 03:25:14;;;;;;;20.60;16.88;;;20.60;99.90;;;;;;4978129;28;20121;-63
2022/08/16 03:27:41;;;;;;;20.73;15.93;;;20.50;99.90;;;;;;4977752;28;20055;-62
2022/08/16 03:30:11;;;;;;;22.30;17.02;;;20.50;99.90;;;;;;4978631;28;20089;-63
2022/08/16 03:32:38;;;;;;;22.48;16.48;;;20.40;99.90;;;;;;4977754;28;20058;-62
2022/08/16 03:35:06;;;;;;;19.98;16.63;;;20.40;99.90;;;;;;4995538;28;20097;-63
2022/08/16 03:37:33;;;;;;;21.50;17.52;;;20.30;99.90;;;;;;4995823;28;20043;-62
2022/08/16 03:40:01;;;;;;;18.80;16.80;;;20.30;99.90;;;;;;4994739;28;20497;-62
2022/08/16 03:42:28;;;;;;;21.38;16.90;;;20.20;99.90;;;;;;4995492;28;20050;-62
2022/08/16 03:44:55;;;;;;;17.45;15.57;;;20.20;99.90;;;;;;4978598;28;20517;-62
2022/08/16 03:47:22;;;;;;;18.27;16.27;;;20.10;99.90;;;;;;4977633;28;20081;-62
2022/08/16 03:49:49;;;;;;;19.73;13.23;;;20.00;99.90;;;;;;4975242;28;20129;-62
2022/08/16 03:52:16;;;;;;;18.83;13.40;;;20.00;99.90;;;;;;4979387;28;20450;-62
2022/08/16 03:54:43;;;;;;;19.77;16.17;;;20.10;99.90;;;;;;4986014;28;20310;-62
2022/08/16 03:57:11;;;;;;;20.10;17.52;;;20.10;99.90;;;;;;4988054;28;20042;-63
2022/08/16 03:59:38;;;;;;;21.92;16.17;;;20.10;99.90;;;;;;4975641;28;20078;-62
2022/08/16 04:02:05;;;;;;;17.33;15.23;;;20.10;99.90;;;;;;4975228;28;20054;-62
2022/08/16 04:04:35;;;;;;;18.70;14.63;;;20.20;99.90;;;;;;4987556;28;20058;-62
2022/08/16 04:07:02;;;;;;;19.70;16.23;;;20.30;99.90;;;;;;4972822;28;20339;-62
2022/08/16 04:09:30;;;;;;;16.02;14.13;;;20.30;99.90;;;;;;4990787;28;20060;-62
2022/08/16 04:11:57;;;;;;;18.52;16.00;;;20.30;99.90;;;;;;4986656;28;20109;-62
2022/08/16 04:14:26;;;;;;;19.08;17.08;;;20.30;99.90;;;;;;4985579;28;20082;-62
2022/08/16 04:16:53;;;;;;;21.55;15.73;;;20.30;99.90;;;;;;4975256;28;20065;-62
2022/08/16 04:19:19;;;;;;;25.75;17.88;;;20.20;99.90;;;;;;4987009;28;20447;-62
2022/08/16 04:21:46;;;;;;;18.90;14.07;;;20.20;99.90;;;;;;4971734;28;20066;-62
2022/08/16 04:24:13;;;;;;;21.38;16.60;;;20.40;99.90;;;;;;4970110;28;20051;-63
2022/08/16 04:26:40;;;;;;;23.73;17.48;;;20.30;99.90;;;;;;4988702;28;20042;-62
2022/08/16 04:29:07;;;;;;;17.20;13.93;;;20.20;99.90;;;;;;4973772;28;20474;-63
2022/08/16 04:31:35;;;;;;;16.13;14.43;;;20.30;99.90;;;;;;4985830;28;20137;-62
2022/08/16 04:34:02;;;;;;;19.08;13.60;;;20.30;99.90;;;;;;4988915;28;20173;-63
2022/08/16 04:36:29;;;;;;;15.75;14.07;;;20.30;99.90;;;;;;4974823;28;20050;-61
2022/08/16 04:38:56;;;;;;;20.50;16.92;;;20.40;99.90;;;;;;4986961;28;20490;-62
2022/08/16 04:41:23;;;;;;;19.77;15.50;;;20.40;99.90;;;;;;4985236;28;20410;-62
2022/08/16 04:43:50;;;;;;;22.95;18.02;;;20.30;99.90;;;;;;4955952;28;20491;-62
2022/08/16 04:46:17;;;;;;;22.25;17.67;;;20.20;99.90;;;;;;4972956;28;20454;-62
2022/08/16 04:48:45;;;;;;;24.27;17.85;;;20.00;99.90;;;;;;4973986;28;20082;-62
2022/08/16 04:51:12;;;;;;;23.08;18.02;;;19.90;99.90;;;;;;4973062;28;20058;-63
2022/08/16 04:53:39;;;;;;;22.48;16.52;;;19.80;99.90;;;;;;4973550;28;20510;-61
2022/08/16 04:56:06;;;;;;;22.58;17.30;;;19.70;99.90;;;;;;4974213;28;20054;-62
2022/08/16 04:58:33;;;;;;;23.30;17.02;;;19.70;99.90;;;;;;4973006;28;20384;-63
2022/08/16 05:01:01;;;;;;;24.20;17.65;;;19.60;99.90;;;;;;4955562;28;20450;-63
2022/08/16 05:03:28;;;;;;;20.02;16.95;;;19.60;99.90;;;;;;4973622;28;20105;-62
2022/08/16 05:05:57;;;;;;;21.23;17.23;;;19.60;99.90;;;;;;4962487;28;20050;-62
2022/08/16 05:08:25;;;;;;;20.25;18.13;;;19.50;99.90;;;;;;4973227;28;20069;-63
2022/08/16 05:10:52;;;;;;;23.08;17.65;;;19.50;99.90;;;;;;4983036;28;20053;-62
2022/08/16 05:13:19;;;;;;;21.45;16.98;;;19.50;99.90;;;;;;4988979;28;20050;-62
2022/08/16 05:15:47;;;;;;;19.30;15.73;;;19.50;99.90;;;;;;4968502;28;20069;-62
2022/08/16 05:18:14;;;;;;;18.15;16.25;;;19.50;99.90;;;;;;4973654;28;20058;-62
2022/08/16 05:20:41;;;;;;;17.88;15.60;;;19.50;99.90;;;;;;4971205;28;20550;-62
2022/08/16 05:23:09;;;;;;;18.02;16.13;;;19.60;99.90;;;;;;4969041;28;20944;-62
2022/08/16 05:25:36;;;;;;;21.52;16.83;;;19.60;99.90;;;;;;4987743;28;20458;-62
2022/08/16 05:28:03;;;;;;;21.10;17.48;;;19.60;99.90;;;;;;4987485;28;20050;-62
2022/08/16 05:30:30;;;;;;;21.60;16.60;;;19.60;99.90;;;;;;4987564;28;20101;-62
2022/08/16 05:32:57;;;;;;;23.75;17.08;;;19.60;99.90;;;;;;4967705;28;20471;-62
2022/08/16 05:35:24;;;;;;;21.70;16.50;;;19.70;99.90;;;;;;4967856;28;20487;-62
2022/08/16 05:37:50;;;;;;;20.20;16.27;;;19.70;99.90;;;;;;4986597;28;20104;-63
2022/08/16 05:40:19;;;;;;;18.80;16.75;;;19.70;99.90;;;;;;4982764;28;20097;-62
2022/08/16 05:42:45;;;;;;;20.65;16.13;;;19.80;99.90;;;;;;4985182;28;20549;-61
2022/08/16 05:45:12;;;;;;;18.10;15.40;;;19.90;99.90;;;;;;4971643;28;20069;-63
2022/08/16 05:47:39;;;;;;;19.48;16.35;;;20.00;99.90;;;;;;4983934;28;20494;-63
2022/08/16 05:50:07;;;;;;;29.58;14.98;;;20.10;99.90;;;;;;4987826;28;20082;-63
2022/08/16 05:52:34;;;;;;;18.52;15.35;;;20.20;99.90;;;;;;4985791;28;20137;-63
2022/08/16 05:55:01;;;;;;;18.70;14.52;;;20.20;99.90;;;;;;4973710;28;20113;-62
2022/08/16 05:57:29;;;;;;;17.98;15.80;;;20.40;99.90;;;;;;4985975;28;20043;-62
2022/08/16 05:59:56;;;;;;;19.63;15.25;;;20.50;99.90;;;;;;4970446;28;20054;-62
2022/08/16 06:02:26;;;;;;;23.35;15.90;;;20.70;99.90;;;;;;4973507;28;20116;-62
2022/08/16 06:04:53;;;;;;;19.65;15.23;;;20.80;99.90;;;;;;4984920;28;20108;-61
2022/08/16 06:07:20;;;;;;;19.38;15.90;;;21.00;99.90;;;;;;4963937;28;20101;-62
2022/08/16 06:09:47;;;;;;;20.35;15.02;;;21.20;99.90;;;;;;4982886;28;20050;-62
2022/08/16 06:12:15;;;;;;;18.00;14.70;;;21.30;99.90;;;;;;4973321;28;20046;-62
2022/08/16 06:14:43;;;;;;;18.85;14.52;;;21.50;99.90;;;;;;4967990;28;20066;-62
2022/08/16 06:17:10;;;;;;;26.67;15.10;;;21.70;99.90;;;;;;4965309;28;20054;-62
2022/08/16 06:19:37;;;;;;;19.83;15.57;;;21.80;99.90;;;;;;4989317;28;20046;-62
2022/08/16 06:22:04;;;;;;;18.65;14.85;;;22.00;99.90;;;;;;4980155;28;20066;-63
2022/08/16 06:24:31;;;;;;;18.15;14.57;;;22.10;99.90;;;;;;4965508;28;20050;-62
2022/08/16 06:26:57;;;;;;;16.05;13.30;;;22.20;99.90;;;;;;4988190;28;20050;-62
2022/08/16 06:29:24;;;;;;;18.65;13.52;;;22.30;99.90;;;;;;4985052;28;20047;-63
2022/08/16 06:31:52;;;;;;;17.98;14.35;;;22.60;99.90;;;;;;4982887;28;20140;-62
2022/08/16 06:34:21;;;;;;;13.80;11.70;;;22.90;99.90;;;;;;4985443;28;20082;-62
2022/08/16 06:36:48;;;;;;;19.02;13.88;;;23.30;99.90;;;;;;4973920;28;20871;-62
2022/08/16 06:39:16;;;;;;;16.13;13.55;;;23.70;99.90;;;;;;4992709;28;20538;-62
2022/08/16 06:41:43;;;;;;;19.25;12.32;;;24.10;99.90;;;;;;4972051;28;20055;-62
2022/08/16 06:44:09;;;;;;;15.15;12.48;;;24.50;99.90;;;;;;4987234;28;20046;-62
2022/08/16 06:46:38;;;;;;;14.23;11.48;;;24.80;99.90;;;;;;4976902;28;20050;-61
2022/08/16 06:49:09;;;;;;;14.70;12.50;;;25.20;99.90;;;;;;4970369;28;20042;-62
2022/08/16 06:51:36;;;;;;;16.10;12.35;;;25.50;99.90;;;;;;4972148;28;20059;-62
2022/08/16 06:54:03;;;;;;;16.25;12.73;;;25.90;99.90;;;;;;4990357;28;20061;-62
2022/08/16 06:56:30;;;;;;;15.05;12.88;;;26.20;99.90;;;;;;4978548;28;20124;-63
2022/08/16 06:58:57;;;;;;;18.17;12.90;;;26.50;99.90;;;;;;4987113;28;20128;-62
2022/08/16 07:01:24;;;;;;;13.63;12.23;;;26.90;99.90;;;;;;4992631;28;20086;-63
2022/08/16 07:03:51;;;;;;;12.20;10.75;;;27.10;99.90;;;;;;4970780;28;20108;-62
2022/08/16 07:06:21;;;;;;;18.58;13.60;;;27.50;99.90;;;;;;4994106;28;20450;-63
2022/08/16 07:08:48;;;;;;;15.38;11.90;;;27.70;98.80;;;;;;4987821;28;20450;-62
2022/08/16 07:11:19;;;;;;;16.00;12.43;;;28.00;98.10;;;;;;4967533;28;20054;-62
2022/08/16 07:13:47;;;;;;;15.45;12.18;;;28.20;97.60;;;;;;4969267;28;20047;-62
2022/08/16 07:16:15;;;;;;;14.32;12.75;;;28.20;96.80;;;;;;4988275;28;20142;-62
2022/08/16 07:18:42;;;;;;;14.20;11.75;;;28.50;96.20;;;;;;4975031;28;20529;-63
2022/08/16 07:21:10;;;;;;;15.52;11.85;;;28.80;95.80;;;;;;4977574;28;20109;-62
2022/08/16 07:23:39;;;;;;;13.80;11.98;;;29.00;95.50;;;;;;4995799;28;20065;-62
2022/08/16 07:26:09;;;;;;;13.40;11.98;;;29.10;95.00;;;;;;4994676;28;20050;-63
2022/08/16 07:28:36;;;;;;;13.35;11.00;;;29.40;94.50;;;;;;4995890;28;20042;-63
2022/08/16 07:31:03;;;;;;;15.55;11.90;;;29.60;93.70;;;;;;4978014;28;20602;-62
2022/08/16 07:33:31;;;;;;;14.15;11.25;;;29.60;93.20;;;;;;4977709;28;20413;-63
2022/08/16 07:35:58;;;;;;;15.27;10.73;;;29.70;92.90;;;;;;4995653;28;20445;-63
2022/08/16 07:38:26;;;;;;;12.85;10.77;;;30.00;92.40;;;;;;4977251;28;20046;-64
2022/08/16 07:40:54;;;;;;;12.60;10.98;;;29.80;91.20;;;;;;4994793;28;20063;-63
2022/08/16 07:43:22;;;;;;;13.15;11.05;;;29.90;91.30;;;;;;4978133;28;20066;-63
2022/08/16 07:45:49;;;;;;;12.43;10.43;;;29.90;91.10;;;;;;4995361;28;20159;-62
2022/08/16 07:48:16;;;;;;;11.52;10.00;;;30.10;91.00;;;;;;4977291;28;20137;-63
2022/08/16 07:50:44;;;;;;;10.07;9.07;;;30.20;90.20;;;;;;4995515;28;20054;-63
2022/08/16 07:53:11;;;;;;;11.75;10.15;;;30.20;90.10;;;;;;4977187;28;20647;-63
2022/08/16 07:55:39;;;;;;;12.10;10.55;;;30.20;89.60;;;;;;4995243;28;20050;-63
2022/08/16 07:58:07;;;;;;;15.55;11.45;;;30.50;89.20;;;;;;4995231;28;20101;-63
2022/08/16 08:00:35;;;;;;;14.25;9.88;;;30.40;88.60;;;;;;4994566;28;20108;-62
2022/08/16 08:03:02;;;;;;;11.82;10.10;;;30.40;88.50;;;;;;4977534;28;20101;-64
2022/08/16 08:05:29;;;;;;;13.88;10.75;;;30.90;88.30;;;;;;4977749;28;20054;-64
2022/08/16 08:07:56;;;;;;;13.80;10.88;;;31.20;88.10;;;;;;4994200;28;20047;-63
2022/08/16 08:10:25;;;;;;;15.35;10.68;;;31.30;86.70;;;;;;4977535;28;20116;-64
2022/08/16 08:12:53;;;;;;;12.05;10.00;;;31.40;86.50;;;;;;4995081;28;20091;-63
2022/08/16 08:15:23;;;;;;;13.38;10.07;;;31.40;86.00;;;;;;4994062;28;20050;-63
2022/08/16 08:17:50;;;;;;;;;;;31.90;86.10;;;;;;4977857;28;20065;-63
2022/08/16 08:20:19;;;;;;;11.05;9.70;;;32.00;83.60;;;;;;4994791;28;19922;-64
2022/08/16 08:22:47;;;;;;;13.65;10.90;;;32.30;84.90;;;;;;4994137;28;20081;-64
2022/08/16 08:25:15;;;;;;;12.23;9.60;;;32.30;84.00;;;;;;4994751;28;20089;-63
2022/08/16 08:27:42;;;;;;;13.70;9.80;;;32.20;83.60;;;;;;4994461;28;20051;-62
2022/08/16 08:30:11;;;;;;;10.98;8.68;;;32.10;83.20;;;;;;4976307;28;20078;-63
2022/08/16 08:32:39;;;;;;;12.20;9.67;;;32.30;83.40;;;;;;4958126;28;20058;-64
2022/08/16 08:35:07;;;;;;;12.55;9.82;;;32.70;82.50;;;;;;4974370;28;20561;-63
2022/08/16 08:37:36;;;;;;;10.95;9.52;;;32.90;81.40;;;;;;4974266;28;20047;-63
2022/08/16 08:40:05;;;;;;;9.93;8.63;;;33.00;80.80;;;;;;4975511;28;20046;-63
2022/08/16 08:42:32;;;;;;;11.40;8.63;;;33.20;80.10;;;;;;4946618;28;20186;-63
2022/08/16 08:44:59;;;;;;;11.52;8.63;;;33.40;80.00;;;;;;4952899;28;20059;-62
2022/08/16 08:47:26;;;;;;;12.30;8.82;;;33.50;79.70;;;;;;4955062;28;20126;-63
2022/08/16 08:49:55;;;;;;;11.75;7.65;;;33.60;79.30;;;;;;4936523;28;20047;-62
2022/08/16 08:52:22;;;;;;;12.80;8.07;;;33.50;78.00;;;;;;4936740;28;20070;-64
2022/08/16 08:54:49;;;;;;;10.13;8.00;;;33.60;77.50;;;;;;4937404;28;20087;-63
2022/08/16 08:57:17;;;;;;;9.30;8.02;;;33.70;77.20;;;;;;4959855;28;20055;-64
2022/08/16 08:59:45;;;;;;;12.48;6.63;;;33.80;76.40;;;;;;4954544;28;20134;-64
2022/08/16 09:02:13;;;;;;;7.43;6.40;;;34.00;76.10;;;;;;4954076;28;20553;-59
2022/08/16 09:04:40;;;;;;;17.60;6.80;;;34.10;74.80;;;;;;4936092;28;20145;-60
2022/08/16 09:07:08;;;;;;;12.75;6.35;;;34.10;73.60;;;;;;4954778;28;20407;-60
2022/08/16 09:09:35;;;;;;;8.88;6.13;;;34.20;73.20;;;;;;4954065;28;20126;-59
2022/08/16 09:12:02;;;;;;;7.97;7.03;;;33.90;73.40;;;;;;4950328;28;20058;-60
2022/08/16 09:14:29;;;;;;;9.55;6.18;;;34.10;73.70;;;;;;4955467;28;20416;-60
2022/08/16 09:16:56;;;;;;;9.48;6.95;;;34.20;73.40;;;;;;4957735;28;20050;-59
2022/08/16 09:19:23;;;;;;;7.65;6.18;;;34.10;72.50;;;;;;4954122;28;20079;-60
2022/08/16 09:21:50;;;;;;;8.98;6.05;;;33.80;73.40;;;;;;4953674;28;20118;-61
2022/08/16 09:24:18;;;;;;;7.13;5.72;;;34.20;72.70;;;;;;4953788;28;20062;-61
2022/08/16 09:26:45;;;;;;;10.73;5.70;;;34.40;71.70;;;;;;4941212;28;20086;-60
2022/08/16 09:29:12;;;;;;;7.60;6.30;;;34.40;71.50;;;;;;4963615;28;20403;-59
2022/08/16 09:31:40;;;;;;;8.75;5.85;;;34.20;71.30;;;;;;4951413;29;20551;-59
2022/08/16 09:34:07;;;;;;;9.60;6.30;;;34.00;71.50;;;;;;4944499;28;20499;-60
2022/08/16 09:36:33;;;;;;;8.90;6.68;;;34.10;72.10;;;;;;4953660;28;20047;-60
2022/08/16 09:39:02;;;;;;;7.80;6.97;;;34.00;72.10;;;;;;4936382;28;20059;-60
2022/08/16 09:41:31;;;;;;;8.07;6.83;;;34.30;72.10;;;;;;4940101;28;20086;-60
2022/08/16 09:43:58;;;;;;;8.60;7.53;;;34.60;71.70;;;;;;4946570;28;20059;-61
2022/08/16 09:46:26;;;;;;;11.48;8.25;;;34.70;71.70;;;;;;4952812;28;20719;-61
2022/08/16 09:48:53;;;;;;;10.00;7.57;;;34.60;71.40;;;;;;4942610;28;20102;-60
2022/08/16 09:51:22;;;;;;;11.90;6.50;;;34.70;70.90;;;;;;4936506;29;20055;-59
2022/08/16 09:53:49;;;;;;;10.25;6.80;;;34.80;70.80;;;;;;4959897;28;20545;-60
2022/08/16 09:56:25;;;;;;;10.07;6.65;;;34.90;70.60;;;;;;4958255;28;20059;-60
2022/08/16 09:58:53;;;;;;;10.70;6.95;;;35.20;70.20;;;;;;4952457;29;20448;-59
2022/08/16 10:01:20;;;;;;;7.83;6.37;;;35.40;70.00;;;;;;4957332;28;20101;-60
2022/08/16 10:03:47;;;;;;;6.40;5.80;;;35.40;69.20;;;;;;4956623;28;20086;-60
2022/08/16 10:06:14;;;;;;;7.50;6.18;;;35.40;69.40;;;;;;4953233;28;20114;-60
2022/08/16 10:08:41;;;;;;;7.63;6.20;;;35.50;69.30;;;;;;4935329;28;20605;-60
2022/08/16 10:13:54;;;;;;;9.27;6.60;;;35.30;68.30;;;;;;4956647;28;20396;-60
2022/08/16 10:16:21;;;;;;;10.27;7.07;;;35.40;68.70;;;;;;4956905;28;20051;-60
2022/08/16 10:18:48;;;;;;;9.32;6.10;;;35.50;68.50;;;;;;4957190;28;20082;-61
2022/08/16 10:21:15;;;;;;;9.85;6.60;;;35.70;69.10;;;;;;4939359;28;20117;-59
2022/08/16 10:23:42;;;;;;;10.38;5.53;;;35.50;68.50;;;;;;4959923;28;20062;-60
2022/08/16 10:26:09;;;;;;;6.75;5.70;;;35.80;68.90;;;;;;4982302;28;20558;-60
2022/08/16 10:28:37;;;;;;;9.85;6.07;;;36.10;68.50;;;;;;4993482;28;20046;-60
2022/08/16 10:31:06;;;;;;;8.13;4.88;;;36.20;67.60;;;;;;4988320;28;20046;-60
2022/08/16 10:33:33;;;;;;;;;;;36.30;67.50;;;;;;4976409;28;20478;-61
2022/08/16 10:36:01;;;;;;;7.38;6.20;;;36.10;66.90;;;;;;4975218;28;19922;-61
2022/08/16 10:38:28;;;;;;;9.48;5.60;;;36.20;67.50;;;;;;4975708;28;20576;-61
2022/08/16 10:40:55;;;;;;;7.47;6.78;;;36.50;67.40;;;;;;4962054;28;20062;-60
2022/08/16 10:43:22;;;;;;;7.97;5.72;;;36.30;66.60;;;;;;4958131;28;20399;-60
2022/08/16 10:45:50;;;;;;;10.40;5.65;;;36.30;66.90;;;;;;4975929;28;20062;-61
2022/08/16 10:48:18;;;;;;;16.00;5.78;;;36.10;66.70;;;;;;4959303;28;20059;-61
2022/08/16 10:50:45;;;;;;;10.80;5.93;;;36.10;66.50;;;;;;4957930;28;20063;-61
2022/08/16 10:53:12;;;;;;;6.78;5.82;;;35.80;66.80;;;;;;4959156;28;20295;-60
2022/08/16 10:55:42;;;;;;;7.85;5.30;;;36.00;66.90;;;;;;4990646;28;20078;-61
2022/08/16 10:58:11;;;;;;;8.18;5.40;;;36.10;67.50;;;;;;4977464;28;20058;-61
2022/08/16 11:00:39;;;;;;;;;;;36.20;67.10;;;;;;4977829;28;20498;-59
2022/08/16 11:03:08;;;;;;;14.23;6.20;;;36.20;66.20;;;;;;4974707;28;19929;-60
2022/08/16 11:05:39;;;;;;;9.57;5.72;;;36.50;67.00;;;;;;4952273;28;20765;-61
2022/08/16 11:08:10;;;;;;;5.68;5.05;;;36.60;66.00;;;;;;4977994;28;20051;-61
2022/08/16 11:10:39;;;;;;;7.05;5.32;;;36.50;66.60;;;;;;4977075;28;20521;-61
2022/08/16 11:13:08;;;;;;;5.80;4.80;;;36.60;66.60;;;;;;4996056;28;20078;-61
2022/08/16 11:15:35;;;;;;;7.20;4.95;;;36.70;66.40;;;;;;4978910;28;20128;-61
2022/08/16 11:18:02;;;;;;;6.22;4.50;;;36.60;66.20;;;;;;4977455;28;20116;-61
2022/08/16 11:20:30;;;;;;;7.20;5.30;;;36.50;65.40;;;;;;4973743;28;20047;-61
2022/08/16 11:22:58;;;;;;;7.95;4.70;;;36.40;65.70;;;;;;4975479;28;20458;-61
2022/08/16 11:25:27;;;;;;;10.20;4.70;;;36.20;65.80;;;;;;4974128;28;20066;-60
2022/08/16 11:27:54;;;;;;;;;;;36.40;65.40;;;;;;4975687;28;20456;-62
2022/08/16 11:30:22;;;;;;;6.35;4.22;;;36.50;65.50;;;;;;4964383;28;19922;-60
2022/08/16 11:32:49;;;;;;;6.65;4.70;;;36.30;65.70;;;;;;4974601;28;20058;-61
2022/08/16 11:35:20;;;;;;;6.97;4.03;;;36.40;65.50;;;;;;4975075;28;20082;-60
2022/08/16 11:37:49;;;;;;;10.65;5.63;;;36.90;65.60;;;;;;4975185;28;20054;-61
2022/08/16 11:40:17;;;;;;;6.35;4.22;;;36.90;65.30;;;;;;4974508;28;20057;-60
2022/08/16 11:42:44;;;;;;;10.55;5.00;;;37.30;65.30;;;;;;4957989;28;20065;-61
2022/08/16 11:45:12;;;;;;;8.45;4.88;;;36.90;65.00;;;;;;4957210;28;20051;-61
2022/08/16 11:47:39;;;;;;;8.20;4.20;;;37.00;65.00;;;;;;4957694;28;20062;-60
2022/08/16 11:50:08;;;;;;;8.32;4.32;;;37.10;65.00;;;;;;4974905;28;20138;-63
2022/08/16 11:52:35;;;;;;;5.63;3.97;;;37.70;64.80;;;;;;4975099;28;20058;-61
2022/08/16 11:55:02;;;;;;;13.13;4.47;;;38.00;64.50;;;;;;4974715;28;20059;-61
2022/08/16 11:57:30;;;;;;;8.00;4.88;;;37.80;64.70;;;;;;4974479;28;20094;-60
2022/08/16 11:59:57;;;;;;;8.05;4.38;;;37.20;65.20;;;;;;4957120;28;20074;-60
2022/08/16 12:02:24;;;;;;;7.90;4.05;;;37.30;64.60;;;;;;4974635;28;20094;-59
2022/08/16 12:04:52;;;;;;;6.47;4.35;;;37.30;64.90;;;;;;4976400;28;20491;-60
2022/08/16 12:07:20;;;;;;;6.45;4.57;;;37.50;64.40;;;;;;4982584;28;20083;-60
2022/08/16 12:09:47;;;;;;;6.65;3.90;;;37.70;64.10;;;;;;4961170;28;20097;-60
2022/08/16 12:12:14;;;;;;;11.13;4.47;;;37.40;63.70;;;;;;4974481;28;20085;-60
2022/08/16 12:14:42;;;;;;;7.57;4.78;;;37.20;63.80;;;;;;4973507;28;20141;-59
2022/08/16 12:17:09;;;;;;;4.93;4.00;;;36.30;64.10;;;;;;4956648;28;20059;-61
2022/08/16 12:19:37;;;;;;;6.70;4.03;;;35.90;64.80;;;;;;4975774;28;20706;-61
2022/08/16 12:22:05;;;;;;;6.82;4.45;;;35.90;65.20;;;;;;4956390;28;20113;-61
2022/08/16 12:24:32;;;;;;;5.63;4.15;;;36.00;65.30;;;;;;4974104;28;20110;-60
2022/08/16 12:27:00;;;;;;;5.47;4.47;;;35.90;65.50;;;;;;4974801;28;20050;-60
2022/08/16 12:29:28;;;;;;;9.05;4.38;;;36.10;65.00;;;;;;4973254;28;20058;-59
2022/08/16 12:31:56;;;;;;;4.97;3.90;;;36.50;64.80;;;;;;4973725;28;20174;-61
2022/08/16 12:34:23;;;;;;;5.70;3.90;;;36.10;64.80;;;;;;4973354;28;20713;-61
2022/08/16 12:36:50;;;;;;;8.68;4.35;;;35.80;64.10;;;;;;4956254;28;20086;-59
2022/08/16 12:39:19;;;;;;;5.35;4.22;;;35.90;64.10;;;;;;4973776;28;20061;-60